Terminal Aerodrome Forecast
Issued by NWS Knoxville/Tri Cities, TN

Home | Current Version | Previous Version | Text Only | Print | Product List | Glossary On
Versions: 1 2 3 4 5 6 7 8 9 10 11 12 13 14 15 16 17 18 19 20 21 22 23 24 25
603
FTUS44 KMRX 141135
TAFTYS
TAF
KTYS 141135Z 1412/1512 04010KT P6SM SCT060 OVC080
     FM141800 07008KT P6SM OVC060
     FM142200 VRB05KT 6SM -SNPL OVC040
     FM150400 18008KT 4SM -RA BKN035=

USA.gov is the U.S. government's official web portal to all federal, state and local government web resources and services.